createdAt,value
2018-12-07T00:00:26.324Z,11.80
2018-12-07T00:02:54.310Z,11.70
2018-12-07T00:05:22.004Z,11.70
2018-12-07T00:07:49.737Z,11.60
2018-12-07T00:10:17.485Z,11.60
2018-12-07T00:12:45.250Z,11.60
2018-12-07T00:15:13.050Z,11.50
2018-12-07T00:17:40.781Z,11.50
2018-12-07T00:20:08.746Z,11.50
2018-12-07T00:22:36.721Z,11.50
2018-12-07T00:25:04.558Z,11.50
2018-12-07T00:27:32.299Z,11.50
2018-12-07T00:30:00.004Z,11.50
2018-12-07T00:32:27.973Z,11.50
2018-12-07T00:34:55.690Z,11.50
2018-12-07T00:37:23.493Z,11.50
2018-12-07T00:39:51.209Z,11.50
2018-12-07T00:42:18.992Z,11.50
2018-12-07T00:44:48.339Z,11.50
2018-12-07T00:47:16.341Z,11.50
2018-12-07T00:49:44.150Z,11.50
2018-12-07T00:52:11.880Z,11.50
2018-12-07T00:54:39.600Z,11.50
2018-12-07T00:57:07.333Z,11.50
2018-12-07T00:59:35.194Z,11.40
2018-12-07T01:02:02.933Z,11.40
2018-12-07T01:04:30.818Z,11.30
2018-12-07T01:06:58.502Z,11.30
2018-12-07T01:09:26.233Z,11.20
2018-12-07T01:11:53.929Z,11.10
2018-12-07T01:14:21.657Z,11.10
2018-12-07T01:16:49.469Z,11.00
2018-12-07T01:19:17.314Z,11.00
2018-12-07T01:21:45.035Z,11.00
2018-12-07T01:24:12.989Z,11.00
2018-12-07T01:26:40.712Z,11.00
2018-12-07T01:29:08.441Z,11.00
2018-12-07T01:31:36.309Z,11.00
2018-12-07T01:34:04.027Z,11.00
2018-12-07T01:36:31.796Z,11.00
2018-12-07T01:38:59.545Z,11.00
2018-12-07T01:41:27.266Z,11.10
2018-12-07T01:43:54.987Z,11.10
2018-12-07T01:46:22.704Z,11.10
2018-12-07T01:48:50.429Z,11.20
2018-12-07T01:51:18.163Z,11.20
2018-12-07T01:53:45.981Z,11.20
2018-12-07T01:56:13.714Z,11.20
2018-12-07T01:58:41.421Z,11.30
2018-12-07T02:01:09.147Z,11.30
2018-12-07T02:03:36.951Z,11.30
2018-12-07T02:06:04.713Z,11.30
2018-12-07T02:08:32.531Z,11.40
2018-12-07T02:11:00.253Z,11.40
2018-12-07T02:13:28.097Z,11.40
2018-12-07T02:15:55.801Z,11.40
2018-12-07T02:18:23.534Z,11.40
2018-12-07T02:20:51.237Z,11.40
2018-12-07T02:23:19.061Z,11.40
2018-12-07T02:25:46.810Z,11.40
2018-12-07T02:28:14.571Z,11.40
2018-12-07T02:30:42.387Z,11.40
2018-12-07T02:33:10.542Z,11.40
2018-12-07T02:35:38.372Z,11.40
2018-12-07T02:38:06.109Z,11.40
2018-12-07T02:40:33.926Z,11.40
2018-12-07T02:43:01.672Z,11.30
2018-12-07T02:45:29.370Z,11.30
2018-12-07T02:47:57.635Z,11.20
2018-12-07T02:50:25.410Z,11.20
2018-12-07T02:52:53.334Z,11.20
2018-12-07T02:55:21.106Z,11.20
2018-12-07T02:57:49.053Z,11.10
2018-12-07T03:00:16.866Z,11.10
2018-12-07T03:02:44.821Z,11.10
2018-12-07T03:05:12.578Z,11.10
2018-12-07T03:07:40.402Z,11.10
2018-12-07T03:10:08.302Z,11.10
2018-12-07T03:12:36.100Z,11.10
2018-12-07T03:15:04.553Z,11.10
2018-12-07T03:17:32.259Z,11.10
2018-12-07T03:19:59.990Z,11.10
2018-12-07T03:22:27.705Z,11.10
2018-12-07T03:24:55.480Z,11.10
2018-12-07T03:27:23.184Z,11.10
2018-12-07T03:29:50.940Z,11.00
2018-12-07T03:32:18.659Z,11.10
2018-12-07T03:34:46.686Z,11.10
2018-12-07T03:37:14.399Z,11.10
2018-12-07T03:39:42.124Z,11.10
2018-12-07T03:42:09.828Z,11.10
2018-12-07T03:44:37.655Z,11.20
2018-12-07T03:47:05.380Z,11.20
2018-12-07T03:49:33.074Z,11.20
2018-12-07T03:52:00.831Z,11.20
2018-12-07T03:54:28.560Z,11.30
2018-12-07T03:56:56.408Z,11.30
2018-12-07T03:59:24.205Z,11.30
2018-12-07T04:01:52.015Z,11.30
2018-12-07T04:04:19.732Z,11.30
2018-12-07T04:06:47.586Z,11.30
2018-12-07T04:09:15.323Z,11.30
2018-12-07T04:11:43.039Z,11.30
2018-12-07T04:14:10.925Z,11.30
2018-12-07T04:16:38.841Z,11.30
2018-12-07T04:19:06.605Z,11.40
2018-12-07T04:21:34.336Z,11.40
2018-12-07T04:24:02.164Z,11.40
2018-12-07T04:26:30.119Z,11.40
2018-12-07T04:28:57.813Z,11.40
2018-12-07T04:31:25.547Z,11.40
2018-12-07T04:33:53.453Z,11.40
2018-12-07T04:36:21.166Z,11.40
2018-12-07T04:38:48.887Z,11.40
2018-12-07T04:41:16.674Z,11.40
2018-12-07T04:43:44.401Z,11.40
2018-12-07T04:46:12.217Z,11.40
2018-12-07T04:48:40.001Z,11.40
2018-12-07T04:51:07.714Z,11.50
2018-12-07T04:53:35.639Z,11.50
2018-12-07T04:56:03.515Z,11.50
2018-12-07T04:58:31.260Z,11.50
2018-12-07T05:00:58.987Z,11.50
2018-12-07T05:03:26.765Z,11.50
2018-12-07T05:05:54.587Z,11.50
2018-12-07T05:08:22.361Z,11.50
2018-12-07T05:10:50.457Z,11.50
2018-12-07T05:13:18.599Z,11.50
2018-12-07T05:15:46.446Z,11.50
2018-12-07T05:18:14.303Z,11.50
2018-12-07T05:20:42.026Z,11.50
2018-12-07T05:23:09.865Z,11.50
2018-12-07T05:25:37.610Z,11.50
2018-12-07T05:28:05.422Z,11.40
2018-12-07T05:30:33.366Z,11.40
2018-12-07T05:33:01.081Z,11.40
2018-12-07T05:35:28.828Z,11.40
2018-12-07T05:37:56.665Z,11.40
2018-12-07T05:40:24.620Z,11.30
2018-12-07T05:42:52.431Z,11.30
2018-12-07T05:45:20.196Z,11.30
2018-12-07T05:47:47.887Z,11.30
2018-12-07T05:50:15.653Z,11.20
2018-12-07T05:52:43.516Z,11.20
2018-12-07T05:55:11.237Z,11.20
2018-12-07T05:57:39.002Z,11.20
2018-12-07T06:00:06.994Z,11.10
2018-12-07T06:02:35.237Z,11.10
2018-12-07T06:05:03.232Z,11.10
2018-12-07T06:07:30.991Z,11.10
2018-12-07T06:09:58.729Z,11.10
2018-12-07T06:12:26.450Z,11.00
2018-12-07T06:14:54.211Z,11.00
2018-12-07T06:17:21.972Z,11.10
2018-12-07T06:19:49.698Z,11.00
2018-12-07T06:22:17.640Z,11.00
2018-12-07T06:24:45.672Z,11.00
2018-12-07T06:27:13.436Z,11.00
2018-12-07T06:29:41.134Z,11.00
2018-12-07T06:32:08.865Z,11.00
2018-12-07T06:34:36.893Z,11.00
2018-12-07T06:37:04.663Z,11.00
2018-12-07T06:39:32.360Z,11.00
2018-12-07T06:42:00.108Z,11.00
2018-12-07T06:44:27.832Z,11.00
2018-12-07T06:46:55.767Z,11.00
2018-12-07T06:49:23.542Z,11.00
2018-12-07T06:51:51.366Z,11.00
2018-12-07T06:54:19.126Z,11.00
2018-12-07T06:56:46.873Z,11.00
2018-12-07T06:59:14.961Z,11.00
2018-12-07T07:01:42.954Z,11.00
2018-12-07T07:04:10.701Z,10.90
2018-12-07T07:06:38.454Z,10.90
2018-12-07T07:09:06.229Z,10.90
2018-12-07T07:11:33.986Z,10.90
2018-12-07T07:14:01.741Z,10.90
2018-12-07T07:16:29.515Z,10.90
2018-12-07T07:18:57.253Z,10.90
2018-12-07T07:21:24.971Z,11.00
2018-12-07T07:23:52.758Z,10.90
2018-12-07T07:26:20.592Z,11.00
2018-12-07T07:28:48.317Z,11.00
2018-12-07T07:31:16.067Z,11.00
2018-12-07T07:33:43.785Z,11.00
2018-12-07T07:36:11.526Z,11.00
2018-12-07T07:38:39.231Z,11.00
2018-12-07T07:41:06.975Z,11.10
2018-12-07T07:43:34.901Z,11.00
2018-12-07T07:46:02.729Z,11.10
2018-12-07T07:48:30.473Z,11.10
2018-12-07T07:50:58.373Z,11.00
2018-12-07T07:53:26.103Z,11.00
2018-12-07T07:55:53.871Z,11.00
2018-12-07T07:58:21.650Z,11.60
2018-12-07T08:00:49.400Z,11.00
2018-12-07T08:03:17.274Z,11.00
2018-12-07T08:05:44.985Z,11.00
2018-12-07T08:08:12.930Z,11.00
2018-12-07T08:10:40.660Z,11.00
2018-12-07T08:13:08.381Z,11.00
2018-12-07T08:15:36.083Z,11.00
2018-12-07T08:18:04.021Z,11.00
2018-12-07T08:20:32.021Z,11.10
2018-12-07T08:23:00.471Z,11.10
2018-12-07T08:25:28.268Z,11.10
2018-12-07T08:27:56.306Z,11.10
2018-12-07T08:30:24.122Z,11.20
2018-12-07T08:32:51.870Z,11.20
2018-12-07T08:35:19.617Z,11.30
2018-12-07T08:37:47.397Z,11.30
2018-12-07T08:40:15.112Z,11.30
2018-12-07T08:42:43.021Z,11.30
2018-12-07T08:45:10.765Z,11.20
2018-12-07T08:47:38.706Z,11.20
2018-12-07T08:50:06.483Z,11.20
2018-12-07T08:52:34.182Z,11.20
2018-12-07T08:55:02.071Z,11.20
2018-12-07T08:57:29.984Z,11.10
2018-12-07T08:59:57.729Z,11.10
2018-12-07T09:02:25.665Z,11.10
2018-12-07T09:04:53.532Z,11.10
2018-12-07T09:07:21.249Z,11.10
2018-12-07T09:09:49.453Z,11.10
2018-12-07T09:12:17.229Z,11.10
2018-12-07T09:14:44.983Z,11.10
2018-12-07T09:17:12.750Z,11.10
2018-12-07T09:19:40.519Z,11.20
2018-12-07T09:22:08.226Z,11.20
2018-12-07T09:24:35.989Z,11.20
2018-12-07T09:27:03.709Z,11.20
2018-12-07T09:29:31.468Z,11.30
2018-12-07T09:31:59.340Z,11.30
2018-12-07T09:34:27.211Z,11.30
2018-12-07T09:36:54.928Z,11.30
2018-12-07T09:39:22.937Z,11.30
2018-12-07T09:41:50.673Z,11.30
2018-12-07T09:44:18.416Z,11.40
2018-12-07T09:46:46.144Z,11.40
2018-12-07T09:49:13.878Z,11.40
2018-12-07T09:51:41.926Z,11.40
2018-12-07T09:54:09.671Z,11.50
2018-12-07T09:56:37.446Z,11.50
2018-12-07T09:59:05.357Z,11.60
2018-12-07T10:01:33.089Z,11.50
2018-12-07T10:04:00.809Z,11.60
2018-12-07T10:06:28.607Z,11.60
2018-12-07T10:08:56.525Z,11.70
2018-12-07T10:11:24.317Z,11.70
2018-12-07T10:13:52.130Z,11.80
2018-12-07T10:16:19.933Z,11.80
2018-12-07T10:18:47.674Z,11.90
2018-12-07T10:21:15.557Z,11.90
2018-12-07T10:23:43.450Z,11.90
2018-12-07T10:26:11.144Z,12.00
2018-12-07T10:28:38.877Z,12.00
2018-12-07T10:31:06.591Z,11.90
2018-12-07T10:33:34.320Z,12.00
2018-12-07T10:36:02.026Z,12.10
2018-12-07T10:38:29.780Z,12.10
2018-12-07T10:40:57.846Z,12.20
2018-12-07T10:43:25.593Z,12.20
2018-12-07T10:45:53.591Z,13.10
2018-12-07T10:48:21.446Z,12.30
2018-12-07T10:50:49.248Z,12.30
2018-12-07T10:53:17.148Z,12.30
2018-12-07T10:55:45.871Z,12.30
2018-12-07T10:58:13.843Z,12.20
2018-12-07T11:00:47.162Z,12.10
2018-12-07T11:03:20.654Z,12.10
2018-12-07T11:05:54.018Z,12.10
2018-12-07T11:08:27.601Z,12.10
2018-12-07T11:10:55.775Z,12.10
2018-12-07T11:13:29.207Z,12.10
2018-12-07T11:16:02.753Z,12.10
2018-12-07T11:18:36.345Z,12.10
2018-12-07T11:21:09.756Z,12.10
2018-12-07T11:23:43.308Z,12.10
2018-12-07T11:26:16.699Z,12.10
2018-12-07T11:28:50.589Z,12.20
2018-12-07T11:31:24.411Z,12.10
2018-12-07T11:33:54.226Z,12.20
2018-12-07T11:36:21.958Z,12.10
2018-12-07T11:38:49.722Z,12.10
2018-12-07T11:41:17.462Z,12.10
2018-12-07T11:43:45.437Z,12.10
2018-12-07T11:46:13.272Z,12.10
2018-12-07T11:48:41.133Z,12.10
2018-12-07T11:51:09.006Z,12.10
2018-12-07T11:53:36.716Z,12.10
2018-12-07T11:56:04.877Z,12.10
2018-12-07T11:58:32.624Z,12.20
2018-12-07T12:01:00.456Z,12.20
2018-12-07T12:03:28.219Z,12.20
2018-12-07T12:05:56.137Z,12.20
2018-12-07T12:08:24.134Z,12.20
2018-12-07T12:10:51.957Z,12.30
2018-12-07T12:13:19.690Z,12.30
2018-12-07T12:15:47.457Z,12.30
2018-12-07T12:18:15.422Z,12.30
2018-12-07T12:20:43.151Z,12.40
2018-12-07T12:23:10.892Z,12.40
2018-12-07T12:25:38.729Z,12.50
2018-12-07T12:28:06.461Z,12.50
2018-12-07T12:30:34.487Z,12.50
2018-12-07T12:33:02.307Z,12.50
2018-12-07T12:35:30.203Z,12.50
2018-12-07T12:37:58.021Z,12.50
2018-12-07T12:40:26.054Z,12.50
2018-12-07T12:42:53.854Z,12.50
2018-12-07T12:45:21.746Z,12.50
2018-12-07T12:47:49.513Z,12.50
2018-12-07T12:50:23.069Z,12.60
2018-12-07T12:52:50.811Z,12.60
2018-12-07T12:55:18.533Z,12.60
2018-12-07T12:57:46.303Z,12.60
2018-12-07T13:00:14.398Z,12.60
2018-12-07T13:02:42.192Z,12.60
2018-12-07T13:05:09.941Z,12.50
2018-12-07T13:07:37.674Z,12.50
2018-12-07T13:10:05.590Z,12.50
2018-12-07T13:12:33.442Z,12.40
2018-12-07T13:15:01.179Z,12.30
2018-12-07T13:17:29.015Z,12.30
2018-12-07T13:19:56.743Z,12.30
2018-12-07T13:22:24.468Z,12.40
2018-12-07T13:24:52.321Z,12.40
2018-12-07T13:27:20.093Z,13.40
2018-12-07T13:29:47.823Z,12.40
2018-12-07T13:32:15.785Z,12.50
2018-12-07T13:34:43.520Z,12.50
2018-12-07T13:37:11.385Z,12.50
2018-12-07T13:39:39.732Z,12.50
2018-12-07T13:42:07.812Z,12.40
2018-12-07T13:44:35.671Z,12.50
2018-12-07T13:47:03.786Z,12.50
2018-12-07T13:49:31.994Z,12.50
2018-12-07T13:51:59.854Z,12.50
2018-12-07T13:54:27.731Z,12.50
2018-12-07T13:56:57.234Z,12.40
2018-12-07T13:59:25.310Z,12.40
2018-12-07T14:01:53.190Z,12.40
2018-12-07T14:04:21.011Z,12.30
2018-12-07T14:06:48.745Z,12.30
2018-12-07T14:09:16.653Z,12.30
2018-12-07T14:11:44.679Z,12.20
2018-12-07T14:14:12.548Z,12.20
2018-12-07T14:16:40.753Z,12.10
2018-12-07T14:19:08.897Z,12.10
2018-12-07T14:21:36.982Z,12.10
2018-12-07T14:24:05.280Z,12.10
2018-12-07T14:26:33.263Z,12.10
2018-12-07T14:29:01.310Z,12.10
2018-12-07T14:31:29.479Z,12.10
2018-12-07T14:33:58.710Z,12.00
2018-12-07T14:36:26.860Z,12.00
2018-12-07T14:38:54.721Z,12.00
2018-12-07T14:41:22.759Z,12.00
2018-12-07T14:43:51.107Z,12.00
2018-12-07T14:46:21.985Z,12.00
2018-12-07T14:48:49.909Z,12.00
2018-12-07T14:51:17.949Z,12.00
2018-12-07T14:53:45.896Z,12.00
2018-12-07T14:56:13.981Z,12.00
2018-12-07T14:58:42.185Z,12.00
2018-12-07T15:01:10.265Z,12.00
2018-12-07T15:03:38.199Z,12.00
2018-12-07T15:06:06.391Z,12.00
2018-12-07T15:08:34.610Z,12.00
2018-12-07T15:11:02.513Z,12.00
2018-12-07T15:13:30.517Z,12.00
2018-12-07T15:15:58.554Z,12.00
2018-12-07T15:18:26.699Z,12.00
2018-12-07T15:20:55.345Z,12.00
2018-12-07T15:23:23.251Z,11.90
2018-12-07T15:25:51.474Z,11.90
2018-12-07T15:28:19.270Z,11.90
2018-12-07T15:30:47.332Z,11.90
2018-12-07T15:33:15.595Z,11.80
2018-12-07T15:35:43.762Z,11.80
2018-12-07T15:38:12.669Z,11.70
2018-12-07T15:40:40.518Z,11.70
2018-12-07T15:43:08.563Z,11.70
2018-12-07T15:45:37.306Z,11.70
2018-12-07T15:48:05.175Z,11.70
2018-12-07T15:50:33.246Z,11.70
2018-12-07T15:53:01.170Z,11.70
2018-12-07T15:55:29.311Z,11.60
2018-12-07T15:57:57.770Z,11.50
2018-12-07T16:00:26.446Z,11.40
2018-12-07T16:02:54.402Z,11.30
2018-12-07T16:05:23.798Z,11.10
2018-12-07T16:07:51.809Z,11.00
2018-12-07T16:10:19.618Z,10.90
2018-12-07T16:12:47.476Z,10.80
2018-12-07T16:15:15.398Z,10.00
2018-12-07T16:17:43.431Z,10.60
2018-12-07T16:20:11.641Z,10.50
2018-12-07T16:22:39.627Z,10.40
2018-12-07T16:25:07.633Z,10.40
2018-12-07T16:27:36.057Z,10.30
2018-12-07T16:30:05.235Z,10.30
2018-12-07T16:32:33.438Z,10.20
2018-12-07T16:35:01.718Z,10.20
2018-12-07T16:37:29.706Z,10.10
2018-12-07T16:39:58.309Z,10.10
2018-12-07T16:42:26.360Z,10.10
2018-12-07T16:44:54.425Z,10.00
2018-12-07T16:47:22.301Z,10.00
2018-12-07T16:49:50.130Z,10.00
2018-12-07T16:52:18.012Z,9.90
2018-12-07T16:54:46.090Z,9.90
2018-12-07T16:57:14.186Z,9.90
2018-12-07T16:59:42.330Z,9.90
2018-12-07T17:02:10.297Z,9.90
2018-12-07T17:04:38.259Z,9.90
2018-12-07T17:07:06.219Z,9.90
2018-12-07T17:09:34.217Z,9.90
2018-12-07T17:12:02.412Z,9.80
2018-12-07T17:14:30.533Z,9.80
2018-12-07T17:16:58.360Z,9.80
2018-12-07T17:19:26.319Z,9.80
2018-12-07T17:21:54.035Z,9.80
2018-12-07T17:24:22.057Z,9.80
2018-12-07T17:26:49.892Z,9.80
2018-12-07T17:29:17.766Z,9.80
2018-12-07T17:31:45.683Z,9.80
2018-12-07T17:34:13.730Z,9.80
2018-12-07T17:36:41.541Z,9.70
2018-12-07T17:39:09.414Z,9.80
2018-12-07T17:41:37.256Z,9.70
2018-12-07T17:44:05.064Z,9.70
2018-12-07T17:46:32.940Z,9.70
2018-12-07T17:49:00.868Z,9.70
2018-12-07T17:51:28.760Z,9.80
2018-12-07T17:53:56.746Z,9.80
2018-12-07T17:56:24.767Z,9.80
2018-12-07T17:58:52.863Z,9.80
2018-12-07T18:01:20.583Z,9.80
2018-12-07T18:03:48.303Z,9.90
2018-12-07T18:06:16.143Z,9.90
2018-12-07T18:08:44.181Z,9.90
2018-12-07T18:11:12.001Z,9.90
2018-12-07T18:13:39.717Z,9.90
2018-12-07T18:16:07.658Z,9.90
2018-12-07T18:18:35.541Z,9.90
2018-12-07T18:21:03.495Z,9.90
2018-12-07T18:23:31.460Z,9.90
2018-12-07T18:25:59.722Z,9.90
2018-12-07T18:28:27.584Z,9.80
2018-12-07T18:30:55.741Z,9.70
2018-12-07T18:33:23.580Z,9.50
2018-12-07T18:35:51.564Z,9.40
2018-12-07T18:38:19.358Z,9.20
2018-12-07T18:40:47.125Z,9.10
2018-12-07T18:43:14.980Z,9.00
2018-12-07T18:45:43.212Z,9.00
2018-12-07T18:48:11.568Z,8.90
2018-12-07T18:50:39.508Z,8.80
2018-12-07T18:53:07.748Z,8.80
2018-12-07T18:55:35.737Z,8.70
2018-12-07T18:58:03.960Z,8.60
2018-12-07T19:00:32.058Z,8.50
2018-12-07T19:03:00.075Z,8.30
2018-12-07T19:05:27.862Z,8.20
2018-12-07T19:07:55.857Z,8.00
2018-12-07T19:10:24.382Z,7.90
2018-12-07T19:12:52.489Z,7.80
2018-12-07T19:15:20.373Z,7.70
2018-12-07T19:17:48.336Z,7.60
2018-12-07T19:20:16.551Z,7.60
2018-12-07T19:22:44.504Z,7.50
2018-12-07T19:25:12.534Z,7.40
2018-12-07T19:27:40.546Z,7.30
2018-12-07T19:30:14.453Z,7.20
2018-12-07T19:32:39.056Z,7.20
2018-12-07T19:35:07.327Z,7.10
2018-12-07T19:37:35.260Z,7.10
2018-12-07T19:40:03.652Z,7.10
2018-12-07T19:42:31.815Z,7.10
2018-12-07T19:44:59.697Z,7.00
2018-12-07T19:47:27.637Z,7.00
2018-12-07T19:49:55.379Z,7.00
2018-12-07T19:52:23.585Z,7.00
2018-12-07T19:54:51.646Z,7.00
2018-12-07T19:57:20.198Z,7.00
2018-12-07T19:59:48.433Z,7.00
2018-12-07T20:02:16.225Z,7.00
2018-12-07T20:04:44.314Z,7.00
2018-12-07T20:07:12.450Z,7.00
2018-12-07T20:09:40.185Z,7.00
2018-12-07T20:12:08.189Z,6.90
2018-12-07T20:14:36.114Z,6.90
2018-12-07T20:17:04.292Z,7.00
2018-12-07T20:19:32.301Z,7.00
2018-12-07T20:22:00.034Z,6.90
2018-12-07T20:24:27.837Z,6.90
2018-12-07T20:26:55.613Z,6.90
2018-12-07T20:29:23.867Z,6.90
2018-12-07T20:31:51.698Z,6.90
2018-12-07T20:34:19.741Z,6.90
2018-12-07T20:36:47.645Z,6.90
2018-12-07T20:39:15.647Z,6.90
2018-12-07T20:41:43.394Z,6.90
2018-12-07T20:44:11.406Z,7.00
2018-12-07T20:46:39.246Z,7.00
2018-12-07T20:49:07.590Z,7.00
2018-12-07T20:51:35.755Z,6.90
2018-12-07T20:54:03.661Z,6.90
2018-12-07T20:56:31.737Z,6.90
2018-12-07T20:58:59.846Z,6.90
2018-12-07T21:01:27.862Z,6.90
2018-12-07T21:04:04.286Z,7.00
2018-12-07T21:09:54.021Z,7.00
2018-12-07T21:12:23.837Z,7.10
2018-12-07T21:14:52.124Z,7.00
2018-12-07T21:17:20.043Z,7.00
2018-12-07T21:19:49.813Z,7.00
2018-12-07T21:22:17.747Z,7.00
2018-12-07T21:24:45.774Z,7.00
2018-12-07T21:27:13.838Z,7.00
2018-12-07T21:29:41.930Z,6.90
2018-12-07T21:32:11.344Z,6.80
2018-12-07T21:34:44.023Z,6.70
2018-12-07T21:37:12.013Z,6.60
2018-12-07T21:39:39.900Z,6.60
2018-12-07T21:42:07.716Z,6.50
2018-12-07T21:44:36.062Z,6.40
2018-12-07T21:47:04.387Z,6.40
2018-12-07T21:49:32.957Z,6.40
2018-12-07T21:52:08.883Z,6.50
2018-12-07T21:54:36.914Z,6.60
2018-12-07T21:57:04.865Z,6.60
2018-12-07T21:59:32.985Z,6.60
2018-12-07T22:02:01.637Z,6.50
2018-12-07T22:04:29.810Z,6.40
2018-12-07T22:07:01.946Z,6.40
2018-12-07T22:09:29.912Z,6.40
2018-12-07T22:11:57.820Z,6.30
2018-12-07T22:14:25.722Z,6.30
2018-12-07T22:16:53.646Z,6.30
2018-12-07T22:19:21.554Z,6.30
2018-12-07T22:21:49.800Z,6.40
2018-12-07T22:24:18.057Z,6.40
2018-12-07T22:26:46.591Z,6.40
2018-12-07T22:29:14.788Z,6.40
2018-12-07T22:31:42.585Z,6.40
2018-12-07T22:34:10.587Z,6.40
2018-12-07T22:36:38.702Z,6.30
2018-12-07T22:39:07.266Z,6.30
2018-12-07T22:41:35.442Z,6.20
2018-12-07T22:44:03.406Z,6.20
2018-12-07T22:46:31.214Z,6.20
2018-12-07T22:48:59.050Z,6.20
2018-12-07T22:51:26.840Z,6.20
2018-12-07T22:53:54.607Z,6.20
2018-12-07T22:56:22.356Z,6.20
2018-12-07T22:58:50.160Z,6.10
2018-12-07T23:01:18.057Z,6.10
2018-12-07T23:03:45.914Z,6.10
2018-12-07T23:06:13.749Z,6.10
2018-12-07T23:08:41.663Z,6.10
2018-12-07T23:11:09.505Z,6.10
2018-12-07T23:13:37.246Z,6.10
2018-12-07T23:16:05.073Z,6.10
2018-12-07T23:18:32.858Z,6.00
2018-12-07T23:21:00.574Z,6.00
2018-12-07T23:23:28.339Z,6.00
2018-12-07T23:25:56.121Z,6.00
2018-12-07T23:28:23.867Z,6.00
2018-12-07T23:30:51.606Z,5.90
2018-12-07T23:33:19.333Z,5.90
2018-12-07T23:35:47.184Z,5.80
2018-12-07T23:38:15.016Z,5.70
2018-12-07T23:40:43.249Z,5.70
2018-12-07T23:43:11.527Z,5.70
2018-12-07T23:45:39.820Z,5.70
2018-12-07T23:48:08.062Z,5.70
2018-12-07T23:50:36.350Z,5.70
2018-12-07T23:53:04.765Z,5.70
2018-12-07T23:55:33.269Z,5.80
2018-12-07T23:58:01.624Z,5.70
